sensor_id;sensor_type;location;lat;lon;timestamp;temperature;humidity
15930;DHT22;8064;51.142;4.780;2022-07-01T00:00:03;14.60;99.90
15930;DHT22;8064;51.142;4.780;2022-07-01T00:02:29;14.60;99.90
15930;DHT22;8064;51.142;4.780;2022-07-01T00:04:55;14.60;99.90
15930;DHT22;8064;51.142;4.780;2022-07-01T00:07:20;14.60;99.90
15930;DHT22;8064;51.142;4.780;2022-07-01T00:09:46;14.60;99.90
15930;DHT22;8064;51.142;4.780;2022-07-01T00:12:12;14.50;99.90
15930;DHT22;8064;51.142;4.780;2022-07-01T00:14:38;14.50;99.90
15930;DHT22;8064;51.142;4.780;2022-07-01T00:17:03;14.50;99.90
15930;DHT22;8064;51.142;4.780;2022-07-01T00:19:29;14.50;99.90
15930;DHT22;8064;51.142;4.780;2022-07-01T00:21:55;14.50;99.90
15930;DHT22;8064;51.142;4.780;2022-07-01T00:24:21;14.50;99.90
15930;DHT22;8064;51.142;4.780;2022-07-01T00:26:46;14.50;99.90
15930;DHT22;8064;51.142;4.780;2022-07-01T00:29:12;14.50;99.90
15930;DHT22;8064;51.142;4.780;2022-07-01T00:31:38;14.40;99.90
15930;DHT22;8064;51.142;4.780;2022-07-01T00:34:04;14.50;99.90
15930;DHT22;8064;51.142;4.780;2022-07-01T00:36:29;14.40;99.90
15930;DHT22;8064;51.142;4.780;2022-07-01T00:38:55;14.40;99.90
15930;DHT22;8064;51.142;4.780;2022-07-01T00:41:21;14.40;99.90
15930;DHT22;8064;51.142;4.780;2022-07-01T00:43:47;14.40;99.90
15930;DHT22;8064;51.142;4.780;2022-07-01T00:46:13;14.30;99.90
15930;DHT22;8064;51.142;4.780;2022-07-01T00:48:39;14.30;99.90
15930;DHT22;8064;51.142;4.780;2022-07-01T00:51:05;14.30;99.90
15930;DHT22;8064;51.142;4.780;2022-07-01T00:53:31;14.30;99.90
15930;DHT22;8064;51.142;4.780;2022-07-01T00:55:57;14.20;99.90
15930;DHT22;8064;51.142;4.780;2022-07-01T00:58:26;14.20;99.90
15930;DHT22;8064;51.142;4.780;2022-07-01T01:00:54;14.20;99.90
15930;DHT22;8064;51.142;4.780;2022-07-01T01:03:20;14.20;99.90
15930;DHT22;8064;51.142;4.780;2022-07-01T01:05:46;14.10;99.90
15930;DHT22;8064;51.142;4.780;2022-07-01T01:08:12;14.20;99.90
15930;DHT22;8064;51.142;4.780;2022-07-01T01:10:38;14.20;99.90
15930;DHT22;8064;51.142;4.780;2022-07-01T01:13:04;14.10;99.90
15930;DHT22;8064;51.142;4.780;2022-07-01T01:15:31;14.20;99.90
15930;DHT22;8064;51.142;4.780;2022-07-01T01:17:57;14.10;99.90
15930;DHT22;8064;51.142;4.780;2022-07-01T01:20:23;14.10;99.90
15930;DHT22;8064;51.142;4.780;2022-07-01T01:22:49;14.10;99.90
15930;DHT22;8064;51.142;4.780;2022-07-01T01:25:16;14.10;99.90
15930;DHT22;8064;51.142;4.780;2022-07-01T01:27:42;14.10;99.90
15930;DHT22;8064;51.142;4.780;2022-07-01T01:30:09;14.10;99.90
15930;DHT22;8064;51.142;4.780;2022-07-01T01:32:37;14.00;99.90
15930;DHT22;8064;51.142;4.780;2022-07-01T01:35:04;14.00;99.90
15930;DHT22;8064;51.142;4.780;2022-07-01T01:37:30;14.00;99.90
15930;DHT22;8064;51.142;4.780;2022-07-01T01:39:56;14.00;99.90
15930;DHT22;8064;51.142;4.780;2022-07-01T01:42:21;14.00;99.90
15930;DHT22;8064;51.142;4.780;2022-07-01T01:44:48;14.00;99.90
15930;DHT22;8064;51.142;4.780;2022-07-01T01:47:13;14.00;99.90
15930;DHT22;8064;51.142;4.780;2022-07-01T01:49:39;14.00;99.90
15930;DHT22;8064;51.142;4.780;2022-07-01T01:52:05;14.00;99.90
15930;DHT22;8064;51.142;4.780;2022-07-01T01:54:32;14.00;99.90
15930;DHT22;8064;51.142;4.780;2022-07-01T01:56:58;14.00;99.90
15930;DHT22;8064;51.142;4.780;2022-07-01T01:59:24;14.00;99.90
15930;DHT22;8064;51.142;4.780;2022-07-01T02:01:49;14.00;99.90
15930;DHT22;8064;51.142;4.780;2022-07-01T02:04:16;14.00;99.90
15930;DHT22;8064;51.142;4.780;2022-07-01T02:06:42;14.00;99.90
15930;DHT22;8064;51.142;4.780;2022-07-01T02:09:08;14.00;99.90
15930;DHT22;8064;51.142;4.780;2022-07-01T02:11:34;14.00;99.90
15930;DHT22;8064;51.142;4.780;2022-07-01T02:14:00;14.00;99.90
15930;DHT22;8064;51.142;4.780;2022-07-01T02:16:26;13.90;99.90
15930;DHT22;8064;51.142;4.780;2022-07-01T02:18:52;14.00;99.90
15930;DHT22;8064;51.142;4.780;2022-07-01T02:21:18;13.90;99.90
15930;DHT22;8064;51.142;4.780;2022-07-01T02:23:44;13.90;99.90
15930;DHT22;8064;51.142;4.780;2022-07-01T02:26:10;13.90;99.90
15930;DHT22;8064;51.142;4.780;2022-07-01T02:28:36;13.90;99.90
15930;DHT22;8064;51.142;4.780;2022-07-01T02:31:02;13.90;99.90
15930;DHT22;8064;51.142;4.780;2022-07-01T02:33:29;13.90;99.90
15930;DHT22;8064;51.142;4.780;2022-07-01T02:35:55;13.90;99.90
15930;DHT22;8064;51.142;4.780;2022-07-01T02:38:21;13.90;99.90
15930;DHT22;8064;51.142;4.780;2022-07-01T02:40:46;13.90;99.90
15930;DHT22;8064;51.142;4.780;2022-07-01T02:43:12;13.90;99.90
15930;DHT22;8064;51.142;4.780;2022-07-01T02:45:39;13.90;99.90
15930;DHT22;8064;51.142;4.780;2022-07-01T02:48:05;13.90;99.90
15930;DHT22;8064;51.142;4.780;2022-07-01T02:50:31;13.90;99.90
15930;DHT22;8064;51.142;4.780;2022-07-01T02:52:57;13.90;99.90
15930;DHT22;8064;51.142;4.780;2022-07-01T02:55:23;13.90;99.90
15930;DHT22;8064;51.142;4.780;2022-07-01T02:57:49;13.90;99.90
15930;DHT22;8064;51.142;4.780;2022-07-01T03:00:19;13.90;99.90
15930;DHT22;8064;51.142;4.780;2022-07-01T03:02:45;13.90;99.90
15930;DHT22;8064;51.142;4.780;2022-07-01T03:05:11;13.90;99.90
15930;DHT22;8064;51.142;4.780;2022-07-01T03:07:38;13.90;99.90
15930;DHT22;8064;51.142;4.780;2022-07-01T03:10:05;13.90;99.90
15930;DHT22;8064;51.142;4.780;2022-07-01T03:12:31;13.90;99.90
15930;DHT22;8064;51.142;4.780;2022-07-01T03:15:10;13.90;99.90
15930;DHT22;8064;51.142;4.780;2022-07-01T03:17:38;13.90;99.90
15930;DHT22;8064;51.142;4.780;2022-07-01T03:20:05;13.90;99.90
15930;DHT22;8064;51.142;4.780;2022-07-01T03:22:32;13.90;99.90
15930;DHT22;8064;51.142;4.780;2022-07-01T03:24:58;13.90;99.90
15930;DHT22;8064;51.142;4.780;2022-07-01T03:27:25;13.90;99.90
15930;DHT22;8064;51.142;4.780;2022-07-01T03:29:51;13.90;99.90
15930;DHT22;8064;51.142;4.780;2022-07-01T03:32:17;13.90;99.90
15930;DHT22;8064;51.142;4.780;2022-07-01T03:34:44;13.90;99.90
15930;DHT22;8064;51.142;4.780;2022-07-01T03:37:11;13.90;99.90
15930;DHT22;8064;51.142;4.780;2022-07-01T03:39:37;14.00;99.90
15930;DHT22;8064;51.142;4.780;2022-07-01T03:42:05;14.00;99.90
15930;DHT22;8064;51.142;4.780;2022-07-01T03:44:32;14.00;99.90
15930;DHT22;8064;51.142;4.780;2022-07-01T03:46:58;14.00;99.90
15930;DHT22;8064;51.142;4.780;2022-07-01T03:49:24;14.00;99.90
15930;DHT22;8064;51.142;4.780;2022-07-01T03:51:50;14.00;99.90
15930;DHT22;8064;51.142;4.780;2022-07-01T03:54:16;14.00;99.90
15930;DHT22;8064;51.142;4.780;2022-07-01T03:57:20;14.00;99.90
15930;DHT22;8064;51.142;4.780;2022-07-01T03:59:46;14.00;99.90
15930;DHT22;8064;51.142;4.780;2022-07-01T04:02:12;14.00;99.90
15930;DHT22;8064;51.142;4.780;2022-07-01T04:04:38;14.10;99.90
15930;DHT22;8064;51.142;4.780;2022-07-01T04:07:05;14.10;99.90
15930;DHT22;8064;51.142;4.780;2022-07-01T04:09:32;14.10;99.90
15930;DHT22;8064;51.142;4.780;2022-07-01T04:11:58;14.10;99.90
15930;DHT22;8064;51.142;4.780;2022-07-01T04:14:24;14.10;99.90
15930;DHT22;8064;51.142;4.780;2022-07-01T04:16:50;14.10;99.90
15930;DHT22;8064;51.142;4.780;2022-07-01T04:19:17;14.10;99.90
15930;DHT22;8064;51.142;4.780;2022-07-01T04:21:43;14.10;99.90
15930;DHT22;8064;51.142;4.780;2022-07-01T04:24:28;14.10;99.90
15930;DHT22;8064;51.142;4.780;2022-07-01T04:26:54;14.10;99.90
15930;DHT22;8064;51.142;4.780;2022-07-01T04:29:20;14.10;99.90
15930;DHT22;8064;51.142;4.780;2022-07-01T04:31:46;14.20;99.90
15930;DHT22;8064;51.142;4.780;2022-07-01T04:34:13;14.20;99.90
15930;DHT22;8064;51.142;4.780;2022-07-01T04:36:39;14.20;99.90
15930;DHT22;8064;51.142;4.780;2022-07-01T04:39:05;14.30;99.90
15930;DHT22;8064;51.142;4.780;2022-07-01T04:41:31;14.30;99.90
15930;DHT22;8064;51.142;4.780;2022-07-01T04:44:18;14.40;99.90
15930;DHT22;8064;51.142;4.780;2022-07-01T04:46:44;14.40;99.90
15930;DHT22;8064;51.142;4.780;2022-07-01T04:49:10;14.40;99.90
15930;DHT22;8064;51.142;4.780;2022-07-01T04:51:36;14.40;99.90
15930;DHT22;8064;51.142;4.780;2022-07-01T04:54:03;14.40;99.90
15930;DHT22;8064;51.142;4.780;2022-07-01T04:56:29;14.40;99.90
15930;DHT22;8064;51.142;4.780;2022-07-01T04:58:56;14.40;99.90
15930;DHT22;8064;51.142;4.780;2022-07-01T05:01:22;14.50;99.90
15930;DHT22;8064;51.142;4.780;2022-07-01T05:03:48;14.40;99.90
15930;DHT22;8064;51.142;4.780;2022-07-01T05:06:14;14.40;99.90
15930;DHT22;8064;51.142;4.780;2022-07-01T05:08:40;14.40;99.90
15930;DHT22;8064;51.142;4.780;2022-07-01T05:11:05;14.40;99.90
15930;DHT22;8064;51.142;4.780;2022-07-01T05:13:32;14.40;99.90
15930;DHT22;8064;51.142;4.780;2022-07-01T05:15:59;14.40;99.90
15930;DHT22;8064;51.142;4.780;2022-07-01T05:18:25;14.40;99.90
15930;DHT22;8064;51.142;4.780;2022-07-01T05:21:09;14.50;99.90
15930;DHT22;8064;51.142;4.780;2022-07-01T05:23:53;14.50;99.90
15930;DHT22;8064;51.142;4.780;2022-07-01T05:26:19;14.50;99.90
15930;DHT22;8064;51.142;4.780;2022-07-01T05:28:46;14.60;99.90
15930;DHT22;8064;51.142;4.780;2022-07-01T05:31:12;14.70;99.90
15930;DHT22;8064;51.142;4.780;2022-07-01T05:33:37;14.70;99.90
15930;DHT22;8064;51.142;4.780;2022-07-01T05:36:04;14.80;99.90
15930;DHT22;8064;51.142;4.780;2022-07-01T05:38:30;14.90;99.90
15930;DHT22;8064;51.142;4.780;2022-07-01T05:40:56;15.10;99.90
15930;DHT22;8064;51.142;4.780;2022-07-01T05:43:22;15.20;99.90
15930;DHT22;8064;51.142;4.780;2022-07-01T05:45:47;15.30;99.90
15930;DHT22;8064;51.142;4.780;2022-07-01T05:48:13;15.40;99.90
15930;DHT22;8064;51.142;4.780;2022-07-01T05:50:40;15.60;99.90
15930;DHT22;8064;51.142;4.780;2022-07-01T05:53:06;15.70;99.90
15930;DHT22;8064;51.142;4.780;2022-07-01T05:55:32;15.80;99.90
15930;DHT22;8064;51.142;4.780;2022-07-01T05:57:58;15.90;99.90
15930;DHT22;8064;51.142;4.780;2022-07-01T06:00:24;15.90;99.90
15930;DHT22;8064;51.142;4.780;2022-07-01T06:02:50;15.90;99.90
15930;DHT22;8064;51.142;4.780;2022-07-01T06:05:17;16.00;99.90
15930;DHT22;8064;51.142;4.780;2022-07-01T06:07:43;16.10;99.90
15930;DHT22;8064;51.142;4.780;2022-07-01T06:10:10;16.10;99.90
15930;DHT22;8064;51.142;4.780;2022-07-01T06:12:36;16.20;99.90
15930;DHT22;8064;51.142;4.780;2022-07-01T06:15:02;16.30;99.90
15930;DHT22;8064;51.142;4.780;2022-07-01T06:17:28;16.40;99.90
15930;DHT22;8064;51.142;4.780;2022-07-01T06:19:54;16.50;99.90
15930;DHT22;8064;51.142;4.780;2022-07-01T06:22:20;16.60;99.90
15930;DHT22;8064;51.142;4.780;2022-07-01T06:24:47;16.70;99.90
15930;DHT22;8064;51.142;4.780;2022-07-01T06:27:13;16.70;99.90
15930;DHT22;8064;51.142;4.780;2022-07-01T06:29:39;16.70;99.90
15930;DHT22;8064;51.142;4.780;2022-07-01T06:32:06;16.80;99.90
15930;DHT22;8064;51.142;4.780;2022-07-01T06:34:34;16.80;99.90
15930;DHT22;8064;51.142;4.780;2022-07-01T06:36:59;16.90;99.90
15930;DHT22;8064;51.142;4.780;2022-07-01T06:39:26;17.00;99.90
15930;DHT22;8064;51.142;4.780;2022-07-01T06:41:52;17.10;99.90
15930;DHT22;8064;51.142;4.780;2022-07-01T06:44:18;17.20;99.90
15930;DHT22;8064;51.142;4.780;2022-07-01T06:46:44;17.30;99.90
15930;DHT22;8064;51.142;4.780;2022-07-01T06:49:10;17.40;99.90
15930;DHT22;8064;51.142;4.780;2022-07-01T06:51:36;17.50;99.90
15930;DHT22;8064;51.142;4.780;2022-07-01T06:54:02;17.70;99.90
15930;DHT22;8064;51.142;4.780;2022-07-01T06:56:28;17.70;99.90
15930;DHT22;8064;51.142;4.780;2022-07-01T06:58:54;17.80;99.90
15930;DHT22;8064;51.142;4.780;2022-07-01T07:01:19;18.00;99.90
15930;DHT22;8064;51.142;4.780;2022-07-01T07:03:45;18.10;99.90
15930;DHT22;8064;51.142;4.780;2022-07-01T07:06:11;18.20;99.90
15930;DHT22;8064;51.142;4.780;2022-07-01T07:08:37;18.30;99.90
15930;DHT22;8064;51.142;4.780;2022-07-01T07:11:04;18.50;99.90
15930;DHT22;8064;51.142;4.780;2022-07-01T07:13:30;18.60;99.90
15930;DHT22;8064;51.142;4.780;2022-07-01T07:15:56;18.60;99.90
15930;DHT22;8064;51.142;4.780;2022-07-01T07:18:21;18.70;99.90
15930;DHT22;8064;51.142;4.780;2022-07-01T07:20:47;18.70;99.90
15930;DHT22;8064;51.142;4.780;2022-07-01T07:23:13;18.70;99.90
15930;DHT22;8064;51.142;4.780;2022-07-01T07:25:39;18.70;99.90
15930;DHT22;8064;51.142;4.780;2022-07-01T07:28:05;18.70;99.90
15930;DHT22;8064;51.142;4.780;2022-07-01T07:30:32;18.90;99.90
15930;DHT22;8064;51.142;4.780;2022-07-01T07:32:57;19.00;99.90
15930;DHT22;8064;51.142;4.780;2022-07-01T07:35:23;19.10;99.80
15930;DHT22;8064;51.142;4.780;2022-07-01T07:37:49;19.20;99.60
15930;DHT22;8064;51.142;4.780;2022-07-01T07:40:15;19.30;99.30
15930;DHT22;8064;51.142;4.780;2022-07-01T07:42:44;19.40;99.10
15930;DHT22;8064;51.142;4.780;2022-07-01T07:45:10;19.50;98.60
15930;DHT22;8064;51.142;4.780;2022-07-01T07:47:37;19.40;98.30
15930;DHT22;8064;51.142;4.780;2022-07-01T07:50:04;19.50;98.20
15930;DHT22;8064;51.142;4.780;2022-07-01T07:52:30;19.50;98.10
15930;DHT22;8064;51.142;4.780;2022-07-01T07:54:56;19.70;98.20
15930;DHT22;8064;51.142;4.780;2022-07-01T07:57:22;19.90;98.10
15930;DHT22;8064;51.142;4.780;2022-07-01T07:59:47;19.90;97.70
15930;DHT22;8064;51.142;4.780;2022-07-01T08:02:13;19.90;97.40
15930;DHT22;8064;51.142;4.780;2022-07-01T08:04:39;20.00;97.30
15930;DHT22;8064;51.142;4.780;2022-07-01T08:07:05;20.00;97.20
15930;DHT22;8064;51.142;4.780;2022-07-01T08:09:31;19.90;97.00
15930;DHT22;8064;51.142;4.780;2022-07-01T08:12:02;20.00;97.00
15930;DHT22;8064;51.142;4.780;2022-07-01T08:14:28;20.00;97.10
15930;DHT22;8064;51.142;4.780;2022-07-01T08:16:54;20.20;97.10
15930;DHT22;8064;51.142;4.780;2022-07-01T08:19:19;20.20;96.90
15930;DHT22;8064;51.142;4.780;2022-07-01T08:21:45;20.10;96.80
15930;DHT22;8064;51.142;4.780;2022-07-01T08:24:11;20.00;96.80
15930;DHT22;8064;51.142;4.780;2022-07-01T08:26:37;19.90;96.80
15930;DHT22;8064;51.142;4.780;2022-07-01T08:29:03;20.00;96.60
15930;DHT22;8064;51.142;4.780;2022-07-01T08:31:29;20.10;96.30
15930;DHT22;8064;51.142;4.780;2022-07-01T08:33:55;20.10;96.10
15930;DHT22;8064;51.142;4.780;2022-07-01T08:36:21;20.00;95.70
15930;DHT22;8064;51.142;4.780;2022-07-01T08:38:47;20.10;95.40
15930;DHT22;8064;51.142;4.780;2022-07-01T08:41:15;20.20;95.30
15930;DHT22;8064;51.142;4.780;2022-07-01T08:43:41;20.30;95.20
15930;DHT22;8064;51.142;4.780;2022-07-01T08:46:07;20.30;95.20
15930;DHT22;8064;51.142;4.780;2022-07-01T08:48:33;20.30;94.50
15930;DHT22;8064;51.142;4.780;2022-07-01T08:51:00;20.20;94.30
15930;DHT22;8064;51.142;4.780;2022-07-01T08:53:30;20.20;94.20
15930;DHT22;8064;51.142;4.780;2022-07-01T08:55:57;20.20;94.00
15930;DHT22;8064;51.142;4.780;2022-07-01T08:58:42;20.20;94.20
15930;DHT22;8064;51.142;4.780;2022-07-01T09:01:26;20.00;93.70
15930;DHT22;8064;51.142;4.780;2022-07-01T09:03:54;20.10;93.50
15930;DHT22;8064;51.142;4.780;2022-07-01T09:06:23;20.20;93.70
15930;DHT22;8064;51.142;4.780;2022-07-01T09:08:49;20.30;93.60
15930;DHT22;8064;51.142;4.780;2022-07-01T09:11:19;20.30;93.40
15930;DHT22;8064;51.142;4.780;2022-07-01T09:14:05;20.30;93.40
15930;DHT22;8064;51.142;4.780;2022-07-01T09:16:41;20.50;93.90
15930;DHT22;8064;51.142;4.780;2022-07-01T09:19:07;20.80;94.10
15930;DHT22;8064;51.142;4.780;2022-07-01T09:21:33;21.20;94.20
15930;DHT22;8064;51.142;4.780;2022-07-01T09:24:02;21.50;94.30
15930;DHT22;8064;51.142;4.780;2022-07-01T09:26:28;21.80;94.40
15930;DHT22;8064;51.142;4.780;2022-07-01T09:28:56;22.10;94.40
15930;DHT22;8064;51.142;4.780;2022-07-01T09:31:32;22.40;94.20
15930;DHT22;8064;51.142;4.780;2022-07-01T09:34:17;22.50;93.00
15930;DHT22;8064;51.142;4.780;2022-07-01T09:36:53;22.40;92.20
15930;DHT22;8064;51.142;4.780;2022-07-01T09:39:19;22.30;92.00
15930;DHT22;8064;51.142;4.780;2022-07-01T09:41:44;22.10;92.00
15930;DHT22;8064;51.142;4.780;2022-07-01T09:44:10;22.00;92.10
15930;DHT22;8064;51.142;4.780;2022-07-01T09:46:36;21.90;91.90
15930;DHT22;8064;51.142;4.780;2022-07-01T09:49:03;21.70;91.80
15930;DHT22;8064;51.142;4.780;2022-07-01T09:51:29;21.50;91.70
15930;DHT22;8064;51.142;4.780;2022-07-01T09:53:56;21.30;91.40
15930;DHT22;8064;51.142;4.780;2022-07-01T09:56:23;21.20;91.30
15930;DHT22;8064;51.142;4.780;2022-07-01T09:58:50;21.40;91.60
15930;DHT22;8064;51.142;4.780;2022-07-01T10:01:15;21.60;91.70
15930;DHT22;8064;51.142;4.780;2022-07-01T10:03:42;21.80;91.80
15930;DHT22;8064;51.142;4.780;2022-07-01T10:06:13;22.10;91.90
15930;DHT22;8064;51.142;4.780;2022-07-01T10:14:48;22.30;90.00
15930;DHT22;8064;51.142;4.780;2022-07-01T10:17:35;22.10;90.00
15930;DHT22;8064;51.142;4.780;2022-07-01T10:20:12;21.90;89.60
15930;DHT22;8064;51.142;4.780;2022-07-01T10:22:39;21.70;89.70
15930;DHT22;8064;51.142;4.780;2022-07-01T10:25:38;21.60;89.60
15930;DHT22;8064;51.142;4.780;2022-07-01T10:31:36;21.60;89.50
15930;DHT22;8064;51.142;4.780;2022-07-01T10:34:03;22.00;90.00
15930;DHT22;8064;51.142;4.780;2022-07-01T10:36:32;22.30;89.70
15930;DHT22;8064;51.142;4.780;2022-07-01T10:39:09;22.50;88.90
15930;DHT22;8064;51.142;4.780;2022-07-01T10:41:38;22.70;87.80
15930;DHT22;8064;51.142;4.780;2022-07-01T10:46:53;23.10;87.30
15930;DHT22;8064;51.142;4.780;2022-07-01T10:52:13;22.90;86.00
15930;DHT22;8064;51.142;4.780;2022-07-01T11:00:24;22.20;86.00
15930;DHT22;8064;51.142;4.780;2022-07-01T11:02:55;22.10;86.00
15930;DHT22;8064;51.142;4.780;2022-07-01T11:05:22;21.90;86.50
15930;DHT22;8064;51.142;4.780;2022-07-01T11:07:48;22.00;86.40
15930;DHT22;8064;51.142;4.780;2022-07-01T11:10:15;21.90;86.00
15930;DHT22;8064;51.142;4.780;2022-07-01T11:12:42;21.80;86.70
15930;DHT22;8064;51.142;4.780;2022-07-01T11:15:10;21.70;86.90
15930;DHT22;8064;51.142;4.780;2022-07-01T11:17:42;21.70;85.90
15930;DHT22;8064;51.142;4.780;2022-07-01T11:20:09;21.70;85.50
15930;DHT22;8064;51.142;4.780;2022-07-01T11:22:35;21.70;85.70
15930;DHT22;8064;51.142;4.780;2022-07-01T11:25:03;21.70;85.40
15930;DHT22;8064;51.142;4.780;2022-07-01T11:27:30;21.80;84.10
15930;DHT22;8064;51.142;4.780;2022-07-01T11:29:59;21.90;84.00
15930;DHT22;8064;51.142;4.780;2022-07-01T11:32:26;22.10;83.60
15930;DHT22;8064;51.142;4.780;2022-07-01T11:34:52;22.30;83.10
15930;DHT22;8064;51.142;4.780;2022-07-01T11:37:18;22.40;82.80
15930;DHT22;8064;51.142;4.780;2022-07-01T11:40:21;22.60;81.50
15930;DHT22;8064;51.142;4.780;2022-07-01T11:42:47;22.60;79.60
15930;DHT22;8064;51.142;4.780;2022-07-01T11:45:26;22.70;79.70
15930;DHT22;8064;51.142;4.780;2022-07-01T11:47:53;22.80;79.00
15930;DHT22;8064;51.142;4.780;2022-07-01T11:50:20;22.80;78.70
15930;DHT22;8064;51.142;4.780;2022-07-01T11:52:45;22.80;78.50
15930;DHT22;8064;51.142;4.780;2022-07-01T11:55:12;22.80;79.00
15930;DHT22;8064;51.142;4.780;2022-07-01T11:57:37;22.80;79.00
15930;DHT22;8064;51.142;4.780;2022-07-01T12:00:18;22.80;78.70
15930;DHT22;8064;51.142;4.780;2022-07-01T12:02:44;22.80;78.80
15930;DHT22;8064;51.142;4.780;2022-07-01T12:05:09;22.80;78.40
15930;DHT22;8064;51.142;4.780;2022-07-01T12:07:35;22.70;77.70
15930;DHT22;8064;51.142;4.780;2022-07-01T12:10:01;22.60;77.30
15930;DHT22;8064;51.142;4.780;2022-07-01T12:12:27;22.50;77.50
15930;DHT22;8064;51.142;4.780;2022-07-01T12:14:55;22.50;78.20
15930;DHT22;8064;51.142;4.780;2022-07-01T12:17:22;22.40;78.90
15930;DHT22;8064;51.142;4.780;2022-07-01T12:19:49;22.40;78.00
15930;DHT22;8064;51.142;4.780;2022-07-01T12:22:18;22.40;76.90
15930;DHT22;8064;51.142;4.780;2022-07-01T12:24:45;22.20;76.50
15930;DHT22;8064;51.142;4.780;2022-07-01T12:27:12;22.30;77.10
15930;DHT22;8064;51.142;4.780;2022-07-01T12:32:17;22.20;76.90
15930;DHT22;8064;51.142;4.780;2022-07-01T12:35:03;22.30;77.30
15930;DHT22;8064;51.142;4.780;2022-07-01T12:37:33;22.30;77.70
15930;DHT22;8064;51.142;4.780;2022-07-01T12:40:20;22.30;77.30
15930;DHT22;8064;51.142;4.780;2022-07-01T12:42:46;22.20;76.50
15930;DHT22;8064;51.142;4.780;2022-07-01T12:45:14;22.10;77.00
15930;DHT22;8064;51.142;4.780;2022-07-01T12:47:45;22.10;77.40
15930;DHT22;8064;51.142;4.780;2022-07-01T12:55:47;22.10;76.30
15930;DHT22;8064;51.142;4.780;2022-07-01T13:00:57;22.00;76.20
15930;DHT22;8064;51.142;4.780;2022-07-01T13:03:25;22.10;75.80
15930;DHT22;8064;51.142;4.780;2022-07-01T13:05:53;22.10;75.20
15930;DHT22;8064;51.142;4.780;2022-07-01T13:08:19;22.10;75.40
15930;DHT22;8064;51.142;4.780;2022-07-01T13:10:46;22.10;75.30
15930;DHT22;8064;51.142;4.780;2022-07-01T13:13:13;22.10;75.30
15930;DHT22;8064;51.142;4.780;2022-07-01T13:15:39;22.20;74.50
15930;DHT22;8064;51.142;4.780;2022-07-01T13:18:05;22.20;75.30
15930;DHT22;8064;51.142;4.780;2022-07-01T13:20:31;22.30;75.30
15930;DHT22;8064;51.142;4.780;2022-07-01T13:22:56;22.30;75.90
15930;DHT22;8064;51.142;4.780;2022-07-01T13:25:22;22.30;75.50
15930;DHT22;8064;51.142;4.780;2022-07-01T13:27:48;22.30;75.30
15930;DHT22;8064;51.142;4.780;2022-07-01T13:30:17;22.30;75.20
15930;DHT22;8064;51.142;4.780;2022-07-01T13:32:43;22.20;74.40
15930;DHT22;8064;51.142;4.780;2022-07-01T13:35:11;22.20;73.70
15930;DHT22;8064;51.142;4.780;2022-07-01T13:37:38;22.10;73.50
15930;DHT22;8064;51.142;4.780;2022-07-01T13:40:04;22.00;74.30
15930;DHT22;8064;51.142;4.780;2022-07-01T13:42:30;21.90;74.30
15930;DHT22;8064;51.142;4.780;2022-07-01T13:44:56;21.80;74.10
15930;DHT22;8064;51.142;4.780;2022-07-01T13:47:23;21.70;74.70
15930;DHT22;8064;51.142;4.780;2022-07-01T13:49:49;21.60;73.70
15930;DHT22;8064;51.142;4.780;2022-07-01T13:52:15;21.60;73.90
15930;DHT22;8064;51.142;4.780;2022-07-01T13:54:41;21.70;74.00
15930;DHT22;8064;51.142;4.780;2022-07-01T13:57:07;21.70;74.40
15930;DHT22;8064;51.142;4.780;2022-07-01T13:59:33;21.70;75.10
15930;DHT22;8064;51.142;4.780;2022-07-01T14:01:59;21.80;75.50
15930;DHT22;8064;51.142;4.780;2022-07-01T14:04:26;21.80;75.30
15930;DHT22;8064;51.142;4.780;2022-07-01T14:06:51;21.80;75.90
15930;DHT22;8064;51.142;4.780;2022-07-01T14:09:17;21.90;77.50
15930;DHT22;8064;51.142;4.780;2022-07-01T14:11:43;21.90;78.70
15930;DHT22;8064;51.142;4.780;2022-07-01T14:14:10;22.00;79.80
15930;DHT22;8064;51.142;4.780;2022-07-01T14:16:36;22.00;80.70
15930;DHT22;8064;51.142;4.780;2022-07-01T14:19:02;22.00;81.30
15930;DHT22;8064;51.142;4.780;2022-07-01T14:21:28;22.00;81.70
15930;DHT22;8064;51.142;4.780;2022-07-01T14:23:54;21.90;82.10
15930;DHT22;8064;51.142;4.780;2022-07-01T14:26:20;21.90;82.50
15930;DHT22;8064;51.142;4.780;2022-07-01T14:28:45;21.90;83.10
15930;DHT22;8064;51.142;4.780;2022-07-01T14:31:11;21.80;83.40
15930;DHT22;8064;51.142;4.780;2022-07-01T14:33:37;21.70;83.80
15930;DHT22;8064;51.142;4.780;2022-07-01T14:36:03;21.60;84.10
15930;DHT22;8064;51.142;4.780;2022-07-01T14:38:29;21.60;84.70
15930;DHT22;8064;51.142;4.780;2022-07-01T14:40:55;21.50;85.10
15930;DHT22;8064;51.142;4.780;2022-07-01T14:43:21;21.50;85.50
15930;DHT22;8064;51.142;4.780;2022-07-01T14:45:47;21.50;85.90
15930;DHT22;8064;51.142;4.780;2022-07-01T14:48:12;21.40;86.30
15930;DHT22;8064;51.142;4.780;2022-07-01T14:50:40;21.30;86.50
15930;DHT22;8064;51.142;4.780;2022-07-01T14:53:06;21.20;86.80
15930;DHT22;8064;51.142;4.780;2022-07-01T14:55:33;21.10;87.10
15930;DHT22;8064;51.142;4.780;2022-07-01T14:57:59;21.00;87.50
15930;DHT22;8064;51.142;4.780;2022-07-01T15:00:25;21.00;88.00
15930;DHT22;8064;51.142;4.780;2022-07-01T15:02:51;20.90;88.30
15930;DHT22;8064;51.142;4.780;2022-07-01T15:05:17;20.90;88.70
15930;DHT22;8064;51.142;4.780;2022-07-01T15:07:44;20.90;89.00
15930;DHT22;8064;51.142;4.780;2022-07-01T15:10:10;21.00;89.00
15930;DHT22;8064;51.142;4.780;2022-07-01T15:12:35;21.20;89.20
15930;DHT22;8064;51.142;4.780;2022-07-01T15:15:01;21.30;89.30
15930;DHT22;8064;51.142;4.780;2022-07-01T15:17:27;21.40;89.40
15930;DHT22;8064;51.142;4.780;2022-07-01T15:19:53;21.50;89.40
15930;DHT22;8064;51.142;4.780;2022-07-01T15:22:19;21.50;89.30
15930;DHT22;8064;51.142;4.780;2022-07-01T15:24:45;21.50;89.40
15930;DHT22;8064;51.142;4.780;2022-07-01T15:27:11;21.60;89.70
15930;DHT22;8064;51.142;4.780;2022-07-01T15:29:37;21.70;90.00
15930;DHT22;8064;51.142;4.780;2022-07-01T15:32:05;21.80;89.90
15930;DHT22;8064;51.142;4.780;2022-07-01T15:34:31;21.90;90.00
15930;DHT22;8064;51.142;4.780;2022-07-01T15:36:57;21.90;90.00
15930;DHT22;8064;51.142;4.780;2022-07-01T15:39:22;21.90;90.00
15930;DHT22;8064;51.142;4.780;2022-07-01T15:41:49;21.90;90.00
15930;DHT22;8064;51.142;4.780;2022-07-01T15:44:15;21.90;89.80
15930;DHT22;8064;51.142;4.780;2022-07-01T15:46:41;21.90;88.80
15930;DHT22;8064;51.142;4.780;2022-07-01T15:49:07;21.90;88.30
15930;DHT22;8064;51.142;4.780;2022-07-01T15:51:33;21.90;87.70
15930;DHT22;8064;51.142;4.780;2022-07-01T15:54:00;21.80;86.90
15930;DHT22;8064;51.142;4.780;2022-07-01T15:56:28;21.70;86.70
15930;DHT22;8064;51.142;4.780;2022-07-01T15:58:54;21.60;85.90
15930;DHT22;8064;51.142;4.780;2022-07-01T16:01:20;21.60;85.80
15930;DHT22;8064;51.142;4.780;2022-07-01T16:03:48;21.60;85.60
15930;DHT22;8064;51.142;4.780;2022-07-01T16:06:15;21.60;85.30
15930;DHT22;8064;51.142;4.780;2022-07-01T16:08:45;21.50;85.40
15930;DHT22;8064;51.142;4.780;2022-07-01T16:11:15;21.50;85.50
15930;DHT22;8064;51.142;4.780;2022-07-01T16:13:48;21.50;85.20
15930;DHT22;8064;51.142;4.780;2022-07-01T16:16:44;21.60;85.50